Aviation Digital Data Service (ADDS)

Output produced by METARs form (1714 UTC 24 June 2019)
found at http://www.aviationweather.gov/metar/data/
 
METAR text: ETNH 241620Z 06013KT 9999 FEW150 BKN350 23/12 Q1023 BLU+
Conditions at: ETNH (HOHN (GER-AFB) , DE) observed 1620 UTC 24 June 2019
Temperature: 23.0°C (73°F)
Dewpoint: 12.0°C (54°F) [RH = 50%]
Pressure (altimeter): 30.21 inches Hg (1023.0 mb)
Winds: from the ENE (60 degrees) at 15 MPH (13 knots; 6.7 m/s)
Visibility: 6 or more miles (10+ km)
Ceiling: 35000 feet AGL
Clouds: few clouds at 15000 feet AGL
broken clouds at 35000 feet AGL
Weather: no significant weather observed at this time

METAR text: ETNH 241520Z 07013KT 9999 FEW220 BKN320 24/10 Q1023 BLU+FCST CANCEL
Conditions at: ETNH (HOHN (GER-AFB) , DE) observed 1520 UTC 24 June 2019
Temperature: 24.0°C (75°F)
Dewpoint: 10.0°C (50°F) [RH = 41%]
Pressure (altimeter): 30.21 inches Hg (1023.0 mb)
Winds: from the ENE (70 degrees) at 15 MPH (13 knots; 6.7 m/s)
Visibility: 6 or more miles (10+ km)
Ceiling: 32000 feet AGL
Clouds: few clouds at 22000 feet AGL
broken clouds at 32000 feet AGL
Weather: no significant weather observed at this time

METAR text: ETNH 241420Z 06016KT 9999 FEW180 BKN310 24/12 Q1023 BLU+BLU+
Conditions at: ETNH (HOHN (GER-AFB) , DE) observed 1420 UTC 24 June 2019
Temperature: 24.0°C (75°F)
Dewpoint: 12.0°C (54°F) [RH = 47%]
Pressure (altimeter): 30.21 inches Hg (1023.0 mb)
Winds: from the ENE (60 degrees) at 18 MPH (16 knots; 8.2 m/s)
Visibility: 6 or more miles (10+ km)
Ceiling: 31000 feet AGL
Clouds: few clouds at 18000 feet AGL
broken clouds at 31000 feet AGL
Weather: no significant weather observed at this time

METAR text: ETNH 241320Z 06014KT 9999 FEW035 BKN310 24/15 Q1023 BLU+BLU+
Conditions at: ETNH (HOHN (GER-AFB) , DE) observed 1320 UTC 24 June 2019
Temperature: 24.0°C (75°F)
Dewpoint: 15.0°C (59°F) [RH = 57%]
Pressure (altimeter): 30.21 inches Hg (1023.0 mb)
Winds: from the ENE (60 degrees) at 16 MPH (14 knots; 7.2 m/s)
Visibility: 6 or more miles (10+ km)
Ceiling: 31000 feet AGL
Clouds: few clouds at 3500 feet AGL
broken clouds at 31000 feet AGL
Weather: no significant weather observed at this time

METAR text: ETNH 241220Z 09010KT 9999 FEW050 BKN320 25/12 Q1024 BLU+BLU+
Conditions at: ETNH (HOHN (GER-AFB) , DE) observed 1220 UTC 24 June 2019
Temperature: 25.0°C (77°F)
Dewpoint: 12.0°C (54°F) [RH = 44%]
Pressure (altimeter): 30.24 inches Hg (1024.0 mb)
Winds: from the E (90 degrees) at 12 MPH (10 knots; 5.1 m/s)
Visibility: 6 or more miles (10+ km)
Ceiling: 32000 feet AGL
Clouds: few clouds at 5000 feet AGL
broken clouds at 32000 feet AGL
Weather: no significant weather observed at this time

METAR text: ETNH 241120Z 11008KT 9999 FEW180 BKN320 25/11 Q1024 BLU+BLU+
Conditions at: ETNH (HOHN (GER-AFB) , DE) observed 1120 UTC 24 June 2019
Temperature: 25.0°C (77°F)
Dewpoint: 11.0°C (52°F) [RH = 41%]
Pressure (altimeter): 30.24 inches Hg (1024.0 mb)
Winds: from the ESE (110 degrees) at 9 MPH (8 knots; 4.1 m/s)
Visibility: 6 or more miles (10+ km)
Ceiling: 32000 feet AGL
Clouds: few clouds at 18000 feet AGL
broken clouds at 32000 feet AGL
Weather: no significant weather observed at this time

METAR text: ETNH 241020Z 10010KT 9999 FEW200 BKN300 24/12 Q1024 BLU+BLU+
Conditions at: ETNH (HOHN (GER-AFB) , DE) observed 1020 UTC 24 June 2019
Temperature: 24.0°C (75°F)
Dewpoint: 12.0°C (54°F) [RH = 47%]
Pressure (altimeter): 30.24 inches Hg (1024.0 mb)
Winds: from the E (100 degrees) at 12 MPH (10 knots; 5.1 m/s)
Visibility: 6 or more miles (10+ km)
Ceiling: 30000 feet AGL
Clouds: few clouds at 20000 feet AGL
broken clouds at 30000 feet AGL
Weather: no significant weather observed at this time

METAR text: ETNH 240920Z 10008KT 9999 FEW190 BKN310 23/10 Q1024 BLU+BLU+
Conditions at: ETNH (HOHN (GER-AFB) , DE) observed 0920 UTC 24 June 2019
Temperature: 23.0°C (73°F)
Dewpoint: 10.0°C (50°F) [RH = 44%]
Pressure (altimeter): 30.24 inches Hg (1024.0 mb)
Winds: from the E (100 degrees) at 9 MPH (8 knots; 4.1 m/s)
Visibility: 6 or more miles (10+ km)
Ceiling: 31000 feet AGL
Clouds: few clouds at 19000 feet AGL
broken clouds at 31000 feet AGL
Weather: no significant weather observed at this time

METAR text: ETNH 240820Z 10008KT 9999 BKN300 22/11 Q1024 BLU+BLU+
Conditions at: ETNH (HOHN (GER-AFB) , DE) observed 0820 UTC 24 June 2019
Temperature: 22.0°C (72°F)
Dewpoint: 11.0°C (52°F) [RH = 50%]
Pressure (altimeter): 30.24 inches Hg (1024.0 mb)
Winds: from the E (100 degrees) at 9 MPH (8 knots; 4.1 m/s)
Visibility: 6 or more miles (10+ km)
Ceiling: 30000 feet AGL
Clouds: broken clouds at 30000 feet AGL
Weather: no significant weather observed at this time

METAR text: ETNH 240720Z 09009KT 9999 BKN300 20/10 Q1025 BLU+BLU+
Conditions at: ETNH (HOHN (GER-AFB) , DE) observed 0720 UTC 24 June 2019
Temperature: 20.0°C (68°F)
Dewpoint: 10.0°C (50°F) [RH = 53%]
Pressure (altimeter): 30.27 inches Hg (1025.0 mb)
Winds: from the E (90 degrees) at 10 MPH (9 knots; 4.6 m/s)
Visibility: 6 or more miles (10+ km)
Ceiling: 30000 feet AGL
Clouds: broken clouds at 30000 feet AGL
Weather: no significant weather observed at this time

METAR text: ETNH 240620Z 09009KT 9999 BKN300 18/11 Q1025 BLU+BLU+
Conditions at: ETNH (HOHN (GER-AFB) , DE) observed 0620 UTC 24 June 2019
Temperature: 18.0°C (64°F)
Dewpoint: 11.0°C (52°F) [RH = 64%]
Pressure (altimeter): 30.27 inches Hg (1025.0 mb)
Winds: from the E (90 degrees) at 10 MPH (9 knots; 4.6 m/s)
Visibility: 6 or more miles (10+ km)
Ceiling: 30000 feet AGL
Clouds: broken clouds at 30000 feet AGL
Weather: no significant weather observed at this time

METAR text: ETNH 240520Z 10006KT 9999 BKN300 16/11 Q1024 BLU+BLU+
Conditions at: ETNH (HOHN (GER-AFB) , DE) observed 0520 UTC 24 June 2019
Temperature: 16.0°C (61°F)
Dewpoint: 11.0°C (52°F) [RH = 72%]
Pressure (altimeter): 30.24 inches Hg (1024.0 mb)
Winds: from the E (100 degrees) at 7 MPH (6 knots; 3.1 m/s)
Visibility: 6 or more miles (10+ km)
Ceiling: 30000 feet AGL
Clouds: broken clouds at 30000 feet AGL
Weather: no significant weather observed at this time

METAR text: ETNH 240420Z 08005KT 9999 BKN300 15/11 Q1024 BLU+
Conditions at: ETNH (HOHN (GER-AFB) , DE) observed 0420 UTC 24 June 2019
Temperature: 15.0°C (59°F)
Dewpoint: 11.0°C (52°F) [RH = 77%]
Pressure (altimeter): 30.24 inches Hg (1024.0 mb)
Winds: from the E (80 degrees) at 6 MPH (5 knots; 2.6 m/s)
Visibility: 6 or more miles (10+ km)
Ceiling: 30000 feet AGL
Clouds: broken clouds at 30000 feet AGL
Weather: no significant weather observed at this time

METAR text: ETNH 240320Z 07005KT 9999 BKN300 14/11 Q1024 BLU+
Conditions at: ETNH (HOHN (GER-AFB) , DE) observed 0320 UTC 24 June 2019
Temperature: 14.0°C (57°F)
Dewpoint: 11.0°C (52°F) [RH = 82%]
Pressure (altimeter): 30.24 inches Hg (1024.0 mb)
Winds: from the ENE (70 degrees) at 6 MPH (5 knots; 2.6 m/s)
Visibility: 6 or more miles (10+ km)
Ceiling: 30000 feet AGL
Clouds: broken clouds at 30000 feet AGL
Weather: no significant weather observed at this time

METAR text: ETNH 240220Z 07007KT 9999 BKN300 15/13 Q1024 BLU+
Conditions at: ETNH (HOHN (GER-AFB) , DE) observed 0220 UTC 24 June 2019
Temperature: 15.0°C (59°F)
Dewpoint: 13.0°C (55°F) [RH = 88%]
Pressure (altimeter): 30.24 inches Hg (1024.0 mb)
Winds: from the ENE (70 degrees) at 8 MPH (7 knots; 3.6 m/s)
Visibility: 6 or more miles (10+ km)
Ceiling: 30000 feet AGL
Clouds: broken clouds at 30000 feet AGL
Weather: no significant weather observed at this time

METAR text: ETNH 240120Z 08006KT 9999 BKN300 15/13 Q1024 BLU+
Conditions at: ETNH (HOHN (GER-AFB) , DE) observed 0120 UTC 24 June 2019
Temperature: 15.0°C (59°F)
Dewpoint: 13.0°C (55°F) [RH = 88%]
Pressure (altimeter): 30.24 inches Hg (1024.0 mb)
Winds: from the E (80 degrees) at 7 MPH (6 knots; 3.1 m/s)
Visibility: 6 or more miles (10+ km)
Ceiling: 30000 feet AGL
Clouds: broken clouds at 30000 feet AGL
Weather: no significant weather observed at this time

METAR text: ETNH 240020Z 07006KT 9999 BKN300 15/13 Q1024 BLU+
Conditions at: ETNH (HOHN (GER-AFB) , DE) observed 0020 UTC 24 June 2019
Temperature: 15.0°C (59°F)
Dewpoint: 13.0°C (55°F) [RH = 88%]
Pressure (altimeter): 30.24 inches Hg (1024.0 mb)
Winds: from the ENE (70 degrees) at 7 MPH (6 knots; 3.1 m/s)
Visibility: 6 or more miles (10+ km)
Ceiling: 30000 feet AGL
Clouds: broken clouds at 30000 feet AGL
Weather: no significant weather observed at this time

METAR text: ETNH 232320Z 08007KT 9999 BKN300 15/13 Q1024 BLU+
Conditions at: ETNH (HOHN (GER-AFB) , DE) observed 2320 UTC 23 June 2019
Temperature: 15.0°C (59°F)
Dewpoint: 13.0°C (55°F) [RH = 88%]
Pressure (altimeter): 30.24 inches Hg (1024.0 mb)
Winds: from the E (80 degrees) at 8 MPH (7 knots; 3.6 m/s)
Visibility: 6 or more miles (10+ km)
Ceiling: 30000 feet AGL
Clouds: broken clouds at 30000 feet AGL
Weather: no significant weather observed at this time

METAR text: ETNH 232220Z 07007KT 9999 BKN300 16/13 Q1024 BLU+
Conditions at: ETNH (HOHN (GER-AFB) , DE) observed 2220 UTC 23 June 2019
Temperature: 16.0°C (61°F)
Dewpoint: 13.0°C (55°F) [RH = 82%]
Pressure (altimeter): 30.24 inches Hg (1024.0 mb)
Winds: from the ENE (70 degrees) at 8 MPH (7 knots; 3.6 m/s)
Visibility: 6 or more miles (10+ km)
Ceiling: 30000 feet AGL
Clouds: broken clouds at 30000 feet AGL
Weather: no significant weather observed at this time

METAR text: ETNH 232120Z 08007KT 9999 BKN200 17/13 Q1023 BLU+
Conditions at: ETNH (HOHN (GER-AFB) , DE) observed 2120 UTC 23 June 2019
Temperature: 17.0°C (63°F)
Dewpoint: 13.0°C (55°F) [RH = 77%]
Pressure (altimeter): 30.21 inches Hg (1023.0 mb)
Winds: from the E (80 degrees) at 8 MPH (7 knots; 3.6 m/s)
Visibility: 6 or more miles (10+ km)
Ceiling: 20000 feet AGL
Clouds: broken clouds at 20000 feet AGL
Weather: no significant weather observed at this time

METAR text: ETNH 232020Z 08009KT 9999 BKN300 17/12 Q1023 BLU+
Conditions at: ETNH (HOHN (GER-AFB) , DE) observed 2020 UTC 23 June 2019
Temperature: 17.0°C (63°F)
Dewpoint: 12.0°C (54°F) [RH = 72%]
Pressure (altimeter): 30.21 inches Hg (1023.0 mb)
Winds: from the E (80 degrees) at 10 MPH (9 knots; 4.6 m/s)
Visibility: 6 or more miles (10+ km)
Ceiling: 30000 feet AGL
Clouds: broken clouds at 30000 feet AGL
Weather: no significant weather observed at this time

METAR text: ETNH 231920Z 07011KT 9999 BKN350 19/12 Q1023 BLU+
Conditions at: ETNH (HOHN (GER-AFB) , DE) observed 1920 UTC 23 June 2019
Temperature: 19.0°C (66°F)
Dewpoint: 12.0°C (54°F) [RH = 64%]
Pressure (altimeter): 30.21 inches Hg (1023.0 mb)
Winds: from the ENE (70 degrees) at 13 MPH (11 knots; 5.7 m/s)
Visibility: 6 or more miles (10+ km)
Ceiling: 35000 feet AGL
Clouds: broken clouds at 35000 feet AGL
Weather: no significant weather observed at this time

METAR text: ETNH 231820Z 06013KT 9999 BKN350 20/12 Q1022 BLU+
Conditions at: ETNH (HOHN (GER-AFB) , DE) observed 1820 UTC 23 June 2019
Temperature: 20.0°C (68°F)
Dewpoint: 12.0°C (54°F) [RH = 60%]
Pressure (altimeter): 30.18 inches Hg (1022.0 mb)
Winds: from the ENE (60 degrees) at 15 MPH (13 knots; 6.7 m/s)
Visibility: 6 or more miles (10+ km)
Ceiling: 35000 feet AGL
Clouds: broken clouds at 35000 feet AGL
Weather: no significant weather observed at this time

METAR text: ETNH 231720Z 06011KT 9999 FEW300 21/12 Q1022 BLU+
Conditions at: ETNH (HOHN (GER-AFB) , DE) observed 1720 UTC 23 June 2019
Temperature: 21.0°C (70°F)
Dewpoint: 12.0°C (54°F) [RH = 56%]
Pressure (altimeter): 30.18 inches Hg (1022.0 mb)
Winds: from the ENE (60 degrees) at 13 MPH (11 knots; 5.7 m/s)
Visibility: 6 or more miles (10+ km)
Ceiling: at least 12,000 feet AGL
Clouds: few clouds at 30000 feet AGL
Weather: no significant weather observed at this time

METAR text: ETNH 231620Z 07012KT 9999 FEW300 22/12 Q1022 BLU+
Conditions at: ETNH (HOHN (GER-AFB) , DE) observed 1620 UTC 23 June 2019
Temperature: 22.0°C (72°F)
Dewpoint: 12.0°C (54°F) [RH = 53%]
Pressure (altimeter): 30.18 inches Hg (1022.0 mb)
Winds: from the ENE (70 degrees) at 14 MPH (12 knots; 6.2 m/s)
Visibility: 6 or more miles (10+ km)
Ceiling: at least 12,000 feet AGL
Clouds: few clouds at 30000 feet AGL
Weather: no significant weather observed at this time

METAR text: ETNH 231520Z 08011KT 9999 FEW300 23/13 Q1023 BLU+
Conditions at: ETNH (HOHN (GER-AFB) , DE) observed 1520 UTC 23 June 2019
Temperature: 23.0°C (73°F)
Dewpoint: 13.0°C (55°F) [RH = 53%]
Pressure (altimeter): 30.21 inches Hg (1023.0 mb)
Winds: from the E (80 degrees) at 13 MPH (11 knots; 5.7 m/s)
Visibility: 6 or more miles (10+ km)
Ceiling: at least 12,000 feet AGL
Clouds: few clouds at 30000 feet AGL
Weather: no significant weather observed at this time

METAR text: ETNH 231420Z 07012KT 9999 FEW040 23/13 Q1023 BLU+
Conditions at: ETNH (HOHN (GER-AFB) , DE) observed 1420 UTC 23 June 2019
Temperature: 23.0°C (73°F)
Dewpoint: 13.0°C (55°F) [RH = 53%]
Pressure (altimeter): 30.21 inches Hg (1023.0 mb)
Winds: from the ENE (70 degrees) at 14 MPH (12 knots; 6.2 m/s)
Visibility: 6 or more miles (10+ km)
Ceiling: at least 12,000 feet AGL
Clouds: few clouds at 4000 feet AGL
Weather: no significant weather observed at this time

METAR text: ETNH 231320Z 06013KT 9999 FEW040 22/13 Q1023 BLU+
Conditions at: ETNH (HOHN (GER-AFB) , DE) observed 1320 UTC 23 June 2019
Temperature: 22.0°C (72°F)
Dewpoint: 13.0°C (55°F) [RH = 57%]
Pressure (altimeter): 30.21 inches Hg (1023.0 mb)
Winds: from the ENE (60 degrees) at 15 MPH (13 knots; 6.7 m/s)
Visibility: 6 or more miles (10+ km)
Ceiling: at least 12,000 feet AGL
Clouds: few clouds at 4000 feet AGL
Weather: no significant weather observed at this time

METAR text: ETNH 231220Z 07011KT 9999 FEW040 22/14 Q1023 BLU+
Conditions at: ETNH (HOHN (GER-AFB) , DE) observed 1220 UTC 23 June 2019
Temperature: 22.0°C (72°F)
Dewpoint: 14.0°C (57°F) [RH = 60%]
Pressure (altimeter): 30.21 inches Hg (1023.0 mb)
Winds: from the ENE (70 degrees) at 13 MPH (11 knots; 5.7 m/s)
Visibility: 6 or more miles (10+ km)
Ceiling: at least 12,000 feet AGL
Clouds: few clouds at 4000 feet AGL
Weather: no significant weather observed at this time

METAR text: ETNH 231120Z 06011KT 9999 FEW300 22/12 Q1024 BLU+
Conditions at: ETNH (HOHN (GER-AFB) , DE) observed 1120 UTC 23 June 2019
Temperature: 22.0°C (72°F)
Dewpoint: 12.0°C (54°F) [RH = 53%]
Pressure (altimeter): 30.24 inches Hg (1024.0 mb)
Winds: from the ENE (60 degrees) at 13 MPH (11 knots; 5.7 m/s)
Visibility: 6 or more miles (10+ km)
Ceiling: at least 12,000 feet AGL
Clouds: few clouds at 30000 feet AGL
Weather: no significant weather observed at this time

METAR text: ETNH 231020Z 07008KT 9999 FEW300 22/12 Q1023 BLU+
Conditions at: ETNH (HOHN (GER-AFB) , DE) observed 1020 UTC 23 June 2019
Temperature: 22.0°C (72°F)
Dewpoint: 12.0°C (54°F) [RH = 53%]
Pressure (altimeter): 30.21 inches Hg (1023.0 mb)
Winds: from the ENE (70 degrees) at 9 MPH (8 knots; 4.1 m/s)
Visibility: 6 or more miles (10+ km)
Ceiling: at least 12,000 feet AGL
Clouds: few clouds at 30000 feet AGL
Weather: no significant weather observed at this time

METAR text: ETNH 230920Z 11006KT 9999 FEW300 21/13 Q1024 BLU+
Conditions at: ETNH (HOHN (GER-AFB) , DE) observed 0920 UTC 23 June 2019
Temperature: 21.0°C (70°F)
Dewpoint: 13.0°C (55°F) [RH = 60%]
Pressure (altimeter): 30.24 inches Hg (1024.0 mb)
Winds: from the ESE (110 degrees) at 7 MPH (6 knots; 3.1 m/s)
Visibility: 6 or more miles (10+ km)
Ceiling: at least 12,000 feet AGL
Clouds: few clouds at 30000 feet AGL
Weather: no significant weather observed at this time

METAR text: ETNH 230820Z 10008KT 9999 FEW060 19/11 Q1024 BLU+
Conditions at: ETNH (HOHN (GER-AFB) , DE) observed 0820 UTC 23 June 2019
Temperature: 19.0°C (66°F)
Dewpoint: 11.0°C (52°F) [RH = 60%]
Pressure (altimeter): 30.24 inches Hg (1024.0 mb)
Winds: from the E (100 degrees) at 9 MPH (8 knots; 4.1 m/s)
Visibility: 6 or more miles (10+ km)
Ceiling: at least 12,000 feet AGL
Clouds: few clouds at 6000 feet AGL
Weather: no significant weather observed at this time

METAR text: ETNH 230720Z 10007KT 9999 SCT060 18/11 Q1024 BLU+
Conditions at: ETNH (HOHN (GER-AFB) , DE) observed 0720 UTC 23 June 2019
Temperature: 18.0°C (64°F)
Dewpoint: 11.0°C (52°F) [RH = 64%]
Pressure (altimeter): 30.24 inches Hg (1024.0 mb)
Winds: from the E (100 degrees) at 8 MPH (7 knots; 3.6 m/s)
Visibility: 6 or more miles (10+ km)
Ceiling: at least 12,000 feet AGL
Clouds: scattered clouds at 6000 feet AGL
Weather: no significant weather observed at this time

METAR text: ETNH 230620Z 11006KT 9999 FEW300 16/11 Q1024 BLU+
Conditions at: ETNH (HOHN (GER-AFB) , DE) observed 0620 UTC 23 June 2019
Temperature: 16.0°C (61°F)
Dewpoint: 11.0°C (52°F) [RH = 72%]
Pressure (altimeter): 30.24 inches Hg (1024.0 mb)
Winds: from the ESE (110 degrees) at 7 MPH (6 knots; 3.1 m/s)
Visibility: 6 or more miles (10+ km)
Ceiling: at least 12,000 feet AGL
Clouds: few clouds at 30000 feet AGL
Weather: no significant weather observed at this time

METAR text: ETNH 230520Z 10004KT 9999 FEW300 14/11 Q1024 BLU+
Conditions at: ETNH (HOHN (GER-AFB) , DE) observed 0520 UTC 23 June 2019
Temperature: 14.0°C (57°F)
Dewpoint: 11.0°C (52°F) [RH = 82%]
Pressure (altimeter): 30.24 inches Hg (1024.0 mb)
Winds: from the E (100 degrees) at 5 MPH (4 knots; 2.1 m/s)
Visibility: 6 or more miles (10+ km)
Ceiling: at least 12,000 feet AGL
Clouds: few clouds at 30000 feet AGL
Weather: no significant weather observed at this time

Forecast for: ETNH (HOHN (GER-AFB) , DE)
Text: TAF ETNH 241600Z 2417/2505 11008KT 9999 NSW BKN320 BY ETGL
Forecast period: 1700 UTC 24 June 2019 to 0500 UTC 25 June 2019
Forecast type: FROM: standard forecast or significant change
Winds: from the ESE (110 degrees) at 9 MPH (8 knots; 4.1 m/s)
Visibility: 6 or more miles 10+ km)
Ceiling: 32000 feet AGL
Clouds: broken clouds at 32000 feet AGL
Weather: NSW  (no significant weather)